Metar Cercanos

 

LEPA - Palma De Mallorc, Spain
Distance from station: ONO 38km
Actualización: Thu, 27-Jan-2022 9:30pm CET
Few Clouds
Few Clouds
 Viento del varies
Viento: varies 4 km/h
Temperatura: 6°C
Rocío: 5°C
Humedad: 93%
Barómetro: 1029 hPa
Clouds: Few Clouds
Visibility: 7 km
Cloud details: Few Clouds 610 m
2022/01/27 20:30 LEPA 272030Z VRB02KT 7000 R24R/1400D FEW020 06/05 Q1029 NOSIG
LEMH - Mahon/Menorca Is, Spain
Distance from station: ENE 105km
Actualización: Thu, 27-Jan-2022 9:30pm CET
Despejado
Despejado
 Viento del ONO
Viento: ONO 9 km/h
Temperatura: 7°C
Sensación frio: 6°C
Rocío: 6°C
Humedad: 93%
Barómetro: 1029 hPa
Resumen: Despejado
Visibility: greater than 10 km
2022/01/27 20:30 LEMH 272030Z 30005KT CAVOK 07/06 Q1029
 
LEIB - Ibiza/Es Codola, Spain
Distance from station: OSO 165km
Actualización: Thu, 27-Jan-2022 9:30pm CET
Few Clouds
Few Clouds
 Viento del varies
Viento: varies 2 km/h
Temperatura: 7°C
Rocío: 6°C
Humedad: 93%
Barómetro: 1029 hPa
Clouds: Few Clouds
Visibility: 9 km
Cloud details: Few Clouds 457 m
2022/01/27 20:30 LEIB 272030Z VRB01KT 9000 FEW015 07/06 Q1029 NOSIG
LEBL - Barcelona Airpor, Spain
Distance from station: NNO 225km
Actualización: Thu, 27-Jan-2022 9:30pm CET
Parcialmente nuboso
Parcialmente nuboso
 Viento del NO
Viento: NO 9 km/h
Temperatura: 7°C
Sensación frio: 6°C
Rocío: 6°C
Humedad: 93%
Barómetro: 1029 hPa
Clouds: Parcialmente nuboso
Visibility: 9 km
2022/01/27 20:30 LEBL 272030Z 32005KT 9000 NSC 07/06 Q1029 NOSIG
 
LEVC - Valencia (civ/Mi, Spain
Distance from station: NO 188km
Actualización: Thu, 27-Jan-2022 9:30pm CET
Despejado
Despejado
 Viento del ONO
Viento: ONO 7 km/h
Temperatura: 6°C
Sensación frio: 4°C
Rocío: 2°C
Humedad: 76%
Barómetro: 1030 hPa
Resumen: Despejado
Visibility: greater than 10 km
2022/01/27 20:30 LEVC 272030Z 29004KT 260V320 CAVOK 06/02 Q1030 NOSIG
LEGE - Gerona/Costa Bra, Spain
Distance from station: N 276km
Actualización: Thu, 27-Jan-2022 9:30pm CET
Mist, Few clouds
Mist, Few clouds
 Viento del varies
Viento: varies 4 km/h
Temperatura: 3°C
Rocío: 3°C
Humedad: 100%
Barómetro: 1029 hPa
Resumen: Mist
Clouds: Few Clouds
Visibility: 3 km
Cloud details: Few Clouds 457 m
2022/01/27 20:30 LEGE 272030Z VRB02KT 3000 1000N R19/1100U BR FEW015 03/03 Q1029
 
LEAL - Alicante/El Alte, Spain
Distance from station: OSO 344km
Actualización: Thu, 27-Jan-2022 9:30pm CET
Few Clouds
Few Clouds
 Viento del N
Viento: N 9 km/h
Temperatura: 11°C
Rocío: 9°C
Humedad: 88%
Barómetro: 1029 hPa
Clouds: Few Clouds
Visibility: 10 km
Cloud details: Few Clouds 457 m
2022/01/27 20:30 LEAL 272030Z 01005KT 9999 FEW015 11/09 Q1029 NOSIG
LEAM - Almeria Airport, Spain
Distance from station: SSO 56km
Actualización: Thu, 27-Jan-2022 9:30pm CET
Few Clouds
Few Clouds
 Viento del ENE
Viento: ENE 24 km/h
Temperatura: 14°C
Rocío: 6°C
Humedad: 59%
Barómetro: 1027 hPa
Clouds: Few Clouds
Visibility: 10 km
Cloud details: Few Clouds 914 m
2022/01/27 20:30 LEAM 272030Z 06013KT 9999 FEW030 14/06 Q1027
 
LEZG - Zaragoza (mil/Ci, Spain
Distance from station: NO 431km
Actualización: Thu, 27-Jan-2022 9:30pm CET
Despejado
Despejado
 Viento del SSE
Viento: SSE 4 km/h
Temperatura: 6°C
Rocío: -2°C
Humedad: 57%
Barómetro: 1030 hPa
Resumen: Despejado
Visibility: greater than 10 km
2022/01/27 20:30 LEZG 272030Z 16002KT CAVOK 06/M02 Q1030
LEMD - Madrid/Barajas, Spain
Distance from station: ONO 234km
Actualización: Thu, 27-Jan-2022 9:30pm CET
Despejado
Despejado
 Viento del NNO
Viento: NNO 7 km/h
Temperatura: 4°C
Sensación frio: 2°C
Rocío: -3°C
Humedad: 61%
Barómetro: 1028 hPa
Resumen: Despejado
Visibility: greater than 10 km
2022/01/27 20:30 LEMD 272030Z 34004KT CAVOK 04/M03 Q1028 NOSIG
 
LEGR - Granada Airport, Spain
Distance from station: OSO 62km
Actualización: Thu, 27-Jan-2022 9:30pm CET
Few Clouds
Few Clouds
 Viento del calm
Viento: Calma
Temperatura: 6°C
Rocío: 2°C
Humedad: 76%
Barómetro: 1025 hPa
Clouds: Few Clouds
Visibility: 10 km
Cloud details: Few Clouds 1524 m
2022/01/27 20:30 LEGR 272030Z 00000KT 9999 FEW050 06/02 Q1025
LEMG - Malaga (civ/Mil), Spain
Distance from station: OSO 227km
Actualización: Thu, 27-Jan-2022 9:30pm CET
Parcialmente nuboso
Parcialmente nuboso
 Viento del E
Viento: E 22 km/h
Temperatura: 15°C
Rocío: 9°C
Humedad: 68%
Barómetro: 1025 hPa
Clouds: Parcialmente nuboso
Visibility: 10 km
Cloud details: Few Clouds 914 m
Parcialmente nuboso 2438 m
2022/01/27 20:30 LEMG 272030Z 10012KT 9999 FEW030 SCT080 15/09 Q1025 NOSIG
 
LEZL - Sevilla (civ/Mil, Spain
Distance from station: S 318km
Actualización: Thu, 27-Jan-2022 9:30pm CET
Despejado
Despejado
 Viento del ESE
Viento: ESE 9 km/h
Temperatura: 11°C
Rocío: 5°C
Humedad: 67%
Barómetro: 1024 hPa
Resumen: Despejado
Visibility: greater than 10 km
2022/01/27 20:30 LEZL 272030Z 12005KT CAVOK 11/05 Q1024 NOSIG
LEVT - Vitoria, Spain
Distance from station: NO 226km
Actualización: Thu, 27-Jan-2022 9:30pm CET
Few Clouds
Few Clouds
 Viento del NNO
Viento: NNO 2 km/h
Temperatura: 1°C
Rocío: 1°C
Humedad: 100%
Barómetro: 1033 hPa
Clouds: Few Clouds
Visibility: 10 km
Cloud details: Few Clouds 610 m
2022/01/27 20:30 LEVT 272030Z 34001KT 9999 FEW020 01/01 Q1033
 
LEBB - Bilbao/Sondica, Spain
Distance from station: NNO 235km
Actualización: Thu, 27-Jan-2022 9:30pm CET
Cubierto
Cubierto
 Viento del varies
Viento: varies 2 km/h
Temperatura: 8°C
Rocío: 6°C
Humedad: 87%
Barómetro: 1035 hPa
Clouds: Cubierto
Visibility: 10 km
Cloud details: Cubierto 671 m
2022/01/27 20:30 LEBB 272030Z VRB01KT 9999 OVC022 08/06 Q1035 NOSIG
LESO - San Sebastian/Fu, Spain
Distance from station: N 231km
Actualización: Thu, 27-Jan-2022 9:30pm CET
Muy nuboso
Muy nuboso
 Viento del varies
Viento: varies 2 km/h
Temperatura: 7°C
Rocío: 6°C
Humedad: 93%
Barómetro: 1035 hPa
Clouds: Muy nuboso
Visibility: 10 km
Cloud details: Muy nuboso 366 m
2022/01/27 20:30 LESO 272030Z VRB01KT 9999 BKN012 07/06 Q1035
 
LEVD - Valladolid(Mil/C, Spain
Distance from station: ONO 239km
Actualización: Thu, 27-Jan-2022 9:30pm CET
Despejado
Despejado
 Viento del ENE
Viento: ENE 4 km/h
Temperatura: 2°C
Rocío: -5°C
Humedad: 60%
Barómetro: 1029 hPa
Resumen: Despejado
Visibility: greater than 10 km
2022/01/27 20:30 LEVD 272030Z 07002KT CAVOK 02/M05 Q1029
LESA - Salamanca (civ/M, Spain
Distance from station: ONO 349km
Actualización: Thu, 27-Jan-2022 9:30pm CET
Despejado
Despejado
 Viento del S
Viento: S 9 km/h
Temperatura: 1°C
Sensación frio: -2°C
Rocío: -3°C
Humedad: 75%
Barómetro: 1029 hPa
Resumen: Despejado
Visibility: greater than 10 km
2022/01/27 20:30 LESA 272030Z AUTO 18005KT CAVOK 01/M03 Q1029
 
LEXJ - Santander/Paraya, Spain
Distance from station: NNO 247km
Actualización: Thu, 27-Jan-2022 9:30pm CET
Cubierto
Cubierto
 Viento del E
Viento: E 9 km/h
Temperatura: 9°C
Sensación frio: 7°C
Rocío: 5°C
Humedad: 76%
Barómetro: 1035 hPa
Clouds: Cubierto
Visibility: 10 km
Cloud details: Cubierto 610 m
2022/01/27 20:30 LEXJ 272030Z 10005KT 060V160 9999 OVC020 09/05 Q1035
LEAS - Asturias/Aviles, Spain
Distance from station: NO 214km
Actualización: Thu, 27-Jan-2022 9:30pm CET
Muy nuboso
Muy nuboso
 Viento del E
Viento: E 17 km/h
Temperatura: 9°C
Sensación frio: 7°C
Rocío: 5°C
Humedad: 76%
Barómetro: 1034 hPa
Clouds: Muy nuboso
Visibility: 10 km
Cloud details: Few Clouds 549 m
Muy nuboso 762 m
2022/01/27 20:30 LEAS 272030Z 08009KT 050V120 9999 FEW018 BKN025 09/05 Q1034 TEMPO BKN012
 
LECO - La Coruna/Alvedr, Spain
Distance from station: ONO 222km
Actualización: Thu, 27-Jan-2022 9:30pm CET
Despejado
Despejado
 Viento del varies
Viento: varies 2 km/h
Temperatura: 8°C
Rocío: 4°C
Humedad: 76%
Barómetro: 1031 hPa
Resumen: Despejado
Visibility: greater than 10 km
2022/01/27 20:30 LECO 272030Z VRB01KT CAVOK 08/04 Q1031 NOSIG
LEVX - Vigo/Peinador, Spain
Distance from station: O 214km
Actualización: Thu, 27-Jan-2022 9:30pm CET
Despejado
Despejado
 Viento del varies
Viento: varies 4 km/h
Temperatura: 9°C
Rocío: 4°C
Humedad: 71%
Barómetro: 1028 hPa
Resumen: Despejado
Visibility: greater than 10 km
2022/01/27 20:30 LEVX 272030Z VRB02KT CAVOK 09/04 Q1028 NOSIG